ADDS METAR Data INFO
IDs: Format: Raw Decoded Include TAF

Data at: 0427 UTC 24 Apr 2018

KBEA 240415Z AUTO 18004KT 10SM CLR 17/13 A3005 RMK AO2 T01720126
KBEA 240355Z AUTO 17004KT 10SM CLR 18/13 A3005 RMK AO2 T01750126
KBEA 240335Z AUTO 18004KT 10SM CLR 18/13 A3005 RMK AO2 T01800127
KBEA 240315Z AUTO 16004KT 10SM CLR 18/13 A3004 RMK AO2 T01820130
KBEA 240255Z AUTO 15004KT 10SM CLR 19/13 A3003 RMK AO2 T01870130
KBEA 240235Z AUTO 14005KT 10SM CLR 19/13 A3002 RMK AO2 T01930130
KBEA 240215Z AUTO 13005KT 10SM CLR 20/13 A3002 RMK AO2 T01970128
KBEA 240155Z AUTO 13004KT 10SM CLR 21/13 A3001 RMK AO2 T02050126
KBEA 240135Z AUTO 15005KT 10SM CLR 21/13 A3001 RMK AO2 T02080128
KBEA 240115Z AUTO 15006KT 10SM CLR 23/13 A3000 RMK AO2 T02260126
KBEA 240055Z AUTO 15005KT 10SM CLR 24/13 A2999 RMK AO2 T02360128
KBEA 240035Z AUTO 14009KT 10SM CLR 26/12 A2998 RMK AO2 T02630120
KBEA 240015Z AUTO 00000KT 10SM CLR 28/11 A2998 RMK AO2 T02750112
KBEA 232355Z AUTO 00000KT 10SM CLR 28/10 A2997 RMK AO2 T02800104 10285 20246
KBEA 232335Z AUTO 00000KT 10SM CLR 28/10 A2997 RMK AO2 T02810104
KBEA 232315Z AUTO 00000KT 10SM CLR 28/10 A2998 RMK AO2 T02820102
KBEA 232255Z AUTO 00000KT 10SM CLR 28/10 A2998 RMK AO2 T02810103
KBEA 232235Z AUTO 00000KT 10SM CLR 28/11 A2998 RMK AO2 T02820106
KBEA 232215Z AUTO 00000KT 10SM CLR 28/11 A2998 RMK AO2 T02830107
KBEA 232155Z AUTO 00000KT 10SM CLR 28/11 A2999 RMK AO2 T02820108
KBEA 232135Z AUTO 00000KT 10SM CLR 28/10 A2999 RMK AO2 T02820100
KBEA 232115Z AUTO 00000KT 10SM CLR 28/10 A3001 RMK AO2 T02780103
KBEA 232055Z AUTO 00000KT 10SM CLR 28/11 A3002 RMK AO2 T02800106
KBEA 232035Z AUTO 00000KT 10SM CLR 27/10 A3003 RMK AO2 T02720100
KBEA 232015Z AUTO 32003KT 10SM CLR 27/10 A3004 RMK AO2 T02710104
KBEA 231955Z AUTO 28003KT 10SM CLR 27/11 A3005 RMK AO2 T02690105
KBEA 231935Z AUTO 32004KT 10SM CLR 26/10 A3006 RMK AO2 T02640101
KBEA 231915Z AUTO 02003KT 10SM CLR 26/10 A3007 RMK AO2 T02630102
KBEA 231855Z AUTO 32004KT 10SM CLR 26/10 A3008 RMK AO2 T02580101
KBEA 231835Z AUTO 00000KT 10SM CLR 25/10 A3009 RMK AO2 T02540100
KBEA 231815Z AUTO 00000KT 10SM CLR 25/09 A3010 RMK AO2 T02460088
KBEA 231755Z AUTO 00000KT 10SM CLR 25/09 A3011 RMK AO2 T02500087 10253 20136
KBEA 231735Z AUTO 08004KT 10SM CLR 25/09 A3011 RMK AO2 T02470092
KBEA 231715Z AUTO 02007KT 10SM CLR 25/09 A3012 RMK AO2 T02450092
KBEA 231655Z AUTO 00000KT 10SM CLR 24/09 A3012 RMK AO2 T02390086
KBEA 231635Z AUTO 08004KT 10SM CLR 23/09 A3013 RMK AO2 T02340089
KBEA 231615Z AUTO 05005KT 10SM CLR 23/09 A3013 RMK AO2 T02330094
KBEA 231555Z AUTO 07005KT 10SM CLR 23/09 A3013 RMK AO2 T02300093
KBEA 231535Z AUTO 05006KT 10SM CLR 22/09 A3012 RMK AO2 T02220093
KBEA 231515Z AUTO 09007KT 10SM CLR 22/09 A3012 RMK AO2 T02150089
KBEA 231455Z AUTO 08008KT 10SM CLR 21/10 A3012 RMK AO2 T02080095
KBEA 231435Z AUTO 09007KT 10SM CLR 20/09 A3011 RMK AO2 T02020092
KBEA 231415Z AUTO 07008KT 10SM CLR 19/10 A3011 RMK AO2 T01940103
KBEA 231355Z AUTO 10005KT 10SM CLR 19/11 A3012 RMK AO2 T01850107
KBEA 231335Z AUTO 10004KT 10SM CLR 18/11 A3011 RMK AO2 T01790107
KBEA 231315Z AUTO 07004KT 10SM CLR 17/11 A3011 RMK AO2 T01650108
KBEA 231255Z AUTO 08003KT 10SM CLR 16/11 A3011 RMK AO2 T01590113
KBEA 231235Z AUTO 00000KT 10SM CLR 14/12 A3010 RMK AO2 T01410115
KBEA 231215Z AUTO 00000KT 10SM CLR 14/11 A3009 RMK AO2 T01370110
KBEA 231155Z AUTO 03003KT 10SM CLR 14/11 A3008 RMK AO2 T01370112 10168 20136
KBEA 231135Z AUTO 06004KT 10SM CLR 14/11 A3007 RMK AO2 T01400107
KBEA 231115Z AUTO 05005KT 10SM CLR 15/11 A3007 RMK AO2 T01460109
KBEA 231055Z AUTO 06006KT 10SM CLR 15/11 A3006 RMK AO2 T01470113
KBEA 231035Z AUTO 05006KT 10SM CLR 15/12 A3006 RMK AO2 T01500115
KBEA 231015Z AUTO 06005KT 10SM CLR 15/12 A3005 RMK AO2 T01460115
KBEA 230955Z AUTO 06004KT 10SM CLR 15/12 A3004 RMK AO2 T01450117
KBEA 230935Z AUTO 06005KT 10SM CLR 15/12 A3004 RMK AO2 T01450121
KBEA 230915Z AUTO 06003KT 10SM CLR 15/12 A3003 RMK AO2 T01450121
KBEA 230855Z AUTO 05004KT 10SM CLR 15/12 A3003 RMK AO2 T01500121
KBEA 230835Z AUTO 05005KT 10SM CLR 15/13 A3003 RMK AO2 T01500125
KBEA 230815Z AUTO 06004KT 10SM CLR 15/13 A3003 RMK AO2 T01510127
KBEA 230755Z AUTO 05004KT 10SM CLR 16/13 A3003 RMK AO2 T01550131
KBEA 230735Z AUTO 08003KT 10SM CLR 16/13 A3004 RMK AO2 T01590128
KBEA 230715Z AUTO 06003KT 10SM CLR 16/13 A3005 RMK AO2 T01610128
KBEA 230655Z AUTO 00000KT 10SM CLR 16/13 A3005 RMK AO2 T01620128
KBEA 230635Z AUTO 07003KT 10SM CLR 17/13 A3004 RMK AO2 T01650128
KBEA 230615Z AUTO 07004KT 10SM CLR 17/13 A3005 RMK AO2 T01670127
KBEA 230555Z AUTO 07003KT 10SM CLR 17/13 A3004 RMK AO2 T01670128 10246 20164 402600143
KBEA 230535Z AUTO 06004KT 10SM CLR 16/13 A3004 RMK AO2 T01640130
KBEA 230515Z AUTO 09004KT 10SM CLR 17/13 A3004 RMK AO2 T01670130
KBEA 230455Z AUTO 07003KT 10SM CLR 18/12 A3004 RMK AO2 T01750124
KBEA 230435Z AUTO 07003KT 10SM CLR 18/12 A3003 RMK AO2 T01760124
KBEA 230415Z AUTO 07004KT 10SM CLR 17/13 A3003 RMK AO2 T01720125
KBEA 230355Z AUTO 05004KT 10SM CLR 17/13 A3004 RMK AO2 T01690125
KBEA 230335Z AUTO 06003KT 10SM CLR 17/12 A3004 RMK AO2 T01670122
KBEA 230315Z AUTO 06005KT 10SM CLR 18/12 A3003 RMK AO2 T01770120
KBEA 230255Z AUTO 08003KT 10SM CLR 18/12 A3002 RMK AO2 T01760120
KBEA 230235Z AUTO 06004KT 10SM CLR 18/12 A3003 RMK AO2 T01800121
KBEA 230215Z AUTO 05005KT 10SM CLR 19/13 A3003 RMK AO2 T01850125
KBEA 230155Z AUTO 05004KT 10SM CLR 20/13 A3003 RMK AO2 T01950127
KBEA 230135Z AUTO 03004KT 10SM CLR 20/13 A3002 RMK AO2 T01960130
KBEA 230115Z AUTO 04003KT 10SM CLR 21/13 A3001 RMK AO2 T02050130
KBEA 230055Z AUTO 03004KT 10SM CLR 21/13 A3000 RMK AO2 T02140125
KBEA 230035Z AUTO 03005KT 10SM CLR 23/12 A2999 RMK AO2 T02250120
KBEA 230015Z AUTO 02004KT 10SM CLR 24/12 A2999 RMK AO2 T02390121
KBEA 222355Z AUTO 03005KT 10SM CLR 25/12 A2998 RMK AO2 T02470115 10260 20216
KBEA 222335Z AUTO 02007KT 10SM CLR 25/11 A2998 RMK AO2 T02500112
KBEA 222315Z AUTO 02007KT 10SM CLR 25/11 A2998 RMK AO2 T02540108
KBEA 222255Z AUTO 01005KT 10SM CLR 26/11 A2998 RMK AO2 T02560111
KBEA 222235Z AUTO 03006KT 10SM CLR 26/11 A2998 RMK AO2 T02570110
KBEA 222215Z AUTO 35006KT 10SM CLR 26/11 A2998 RMK AO2 T02550114
KBEA 222155Z AUTO 03008KT 10SM CLR 26/12 A2998 RMK AO2 T02560117
KBEA 222135Z AUTO 01009KT 10SM CLR 26/10 A2998 RMK AO2 T02570104
KBEA 222115Z AUTO 01011G15KT 10SM CLR 26/11 A2999 RMK AO2 T02550114
KBEA 222055Z AUTO 36010G14KT 10SM CLR 25/11 A3000 RMK AO2 T02530114
KBEA 222035Z AUTO 36012G17KT 10SM CLR 25/11 A3001 RMK AO2 T02490111
KBEA 222015Z AUTO 35008KT 320V020 10SM CLR 25/12 A3001 RMK AO2 T02460120
KBEA 221955Z AUTO 02011G14KT 10SM CLR 25/12 A3003 RMK AO2 T02450122
KBEA 221935Z AUTO 35012KT 10SM CLR 24/13 A3004 RMK AO2 T02370125
KBEA 221915Z AUTO 02010KT 10SM CLR 23/12 A3005 RMK AO2 T02340122
KBEA 221855Z AUTO 01010G14KT 10SM CLR 23/12 A3006 RMK AO2 T02280123
KBEA 221835Z AUTO 36009G15KT 10SM CLR 22/12 A3006 RMK AO2 T02190121
KBEA 221815Z AUTO 01010G16KT 10SM CLR 22/12 A3008 RMK AO2 T02180121
KBEA 221755Z AUTO 36011G18KT 10SM CLR 22/13 A3008 RMK AO2 T02190127 10219 20143
KBEA 221735Z AUTO 36011G16KT 10SM CLR 21/13 A3009 RMK AO2 T02130126
KBEA 221715Z AUTO 36013KT 10SM CLR 21/13 A3010 RMK AO2 T02070127
KBEA 221655Z AUTO 35013G17KT 10SM CLR 20/13 A3010 RMK AO2 T02040125
KBEA 221635Z AUTO 35013G16KT 10SM CLR 20/13 A3010 RMK AO2 T02010125